createdAt,value
2022-09-02T00:02:17.370Z,99.90
2022-09-02T00:04:44.967Z,99.90
2022-09-02T00:07:11.807Z,99.90
2022-09-02T00:09:40.407Z,99.90
2022-09-02T00:12:09.599Z,99.90
2022-09-02T00:14:39.373Z,99.90
2022-09-02T00:17:06.790Z,99.90
2022-09-02T00:19:35.490Z,99.90
2022-09-02T00:22:03.262Z,99.90
2022-09-02T00:24:31.419Z,99.90
2022-09-02T00:26:58.286Z,99.90
2022-09-02T00:29:27.232Z,99.90
2022-09-02T00:31:54.464Z,99.90
2022-09-02T00:34:21.318Z,99.90
2022-09-02T00:36:48.255Z,99.90
2022-09-02T00:39:15.202Z,99.90
2022-09-02T00:41:44.554Z,99.90
2022-09-02T00:44:16.064Z,99.90
2022-09-02T00:46:43.497Z,99.90
2022-09-02T00:49:24.880Z,99.90
2022-09-02T00:51:59.518Z,99.90
2022-09-02T00:54:30.159Z,99.90
2022-09-02T00:56:57.632Z,99.90
2022-09-02T00:59:38.857Z,99.90
2022-09-02T01:02:07.394Z,99.90
2022-09-02T01:04:35.296Z,99.90
2022-09-02T01:07:03.274Z,99.90
2022-09-02T01:09:33.323Z,99.90
2022-09-02T01:12:03.070Z,99.90
2022-09-02T01:14:30.196Z,99.90
2022-09-02T01:17:01.855Z,99.90
2022-09-02T01:19:45.908Z,99.90
2022-09-02T01:22:24.067Z,99.90
2022-09-02T01:24:51.979Z,99.90
2022-09-02T01:27:22.413Z,99.90
2022-09-02T01:29:57.664Z,99.90
2022-09-02T01:32:26.094Z,99.90
2022-09-02T01:34:53.139Z,99.90
2022-09-02T01:37:20.764Z,99.90
2022-09-02T01:39:48.653Z,99.90
2022-09-02T01:42:16.292Z,99.90
2022-09-02T01:44:45.751Z,99.90
2022-09-02T01:47:25.350Z,99.90
2022-09-02T01:49:53.083Z,99.90
2022-09-02T01:52:22.943Z,99.90
2022-09-02T01:54:49.970Z,99.90
2022-09-02T01:57:17.095Z,99.90
2022-09-02T01:59:46.078Z,99.90
2022-09-02T02:02:14.641Z,99.90
2022-09-02T02:04:41.512Z,99.90
2022-09-02T02:07:08.338Z,99.90
2022-09-02T02:09:35.207Z,99.90
2022-09-02T02:12:02.126Z,99.90
2022-09-02T02:14:30.223Z,99.90
2022-09-02T02:16:57.082Z,99.90
2022-09-02T02:19:23.885Z,99.90
2022-09-02T02:21:50.818Z,99.90
2022-09-02T02:24:18.538Z,99.90
2022-09-02T02:26:45.574Z,99.90
2022-09-02T02:29:13.875Z,99.90
2022-09-02T02:31:41.453Z,99.90
2022-09-02T02:34:08.587Z,99.90
2022-09-02T02:36:35.374Z,99.90
2022-09-02T02:39:02.606Z,99.90
2022-09-02T02:41:33.555Z,99.90
2022-09-02T02:44:00.458Z,99.90
2022-09-02T02:46:28.621Z,99.90
2022-09-02T02:48:55.529Z,99.90
2022-09-02T02:51:22.419Z,99.90
2022-09-02T02:53:49.243Z,99.90
2022-09-02T02:56:16.098Z,99.90
2022-09-02T02:58:43.043Z,99.90
2022-09-02T03:01:10.383Z,99.90
2022-09-02T03:03:37.225Z,99.90
2022-09-02T03:06:04.223Z,99.90
2022-09-02T03:08:31.984Z,99.90
2022-09-02T03:10:59.659Z,99.90
2022-09-02T03:13:27.313Z,99.90
2022-09-02T03:15:56.849Z,99.90
2022-09-02T03:18:23.835Z,99.90
2022-09-02T03:20:51.193Z,99.90
2022-09-02T03:23:18.891Z,99.90
2022-09-02T03:25:46.356Z,99.90
2022-09-02T03:28:13.675Z,99.90
2022-09-02T03:30:41.945Z,99.90
2022-09-02T03:33:08.903Z,99.90
2022-09-02T03:35:41.402Z,99.90
2022-09-02T03:38:09.197Z,99.90
2022-09-02T03:40:36.569Z,99.90
2022-09-02T03:43:04.899Z,99.90
2022-09-02T03:45:32.579Z,99.90
2022-09-02T03:47:59.686Z,99.90
2022-09-02T03:50:34.182Z,99.90
2022-09-02T03:53:01.408Z,99.90
2022-09-02T03:55:28.675Z,99.90
2022-09-02T03:57:55.969Z,99.90
2022-09-02T04:00:25.578Z,99.90
2022-09-02T04:02:55.224Z,99.90
2022-09-02T04:05:23.274Z,99.90
2022-09-02T04:07:52.610Z,99.90
2022-09-02T04:10:21.890Z,99.90
2022-09-02T04:12:50.072Z,99.90
2022-09-02T04:15:16.991Z,99.90
2022-09-02T04:17:44.056Z,99.90
2022-09-02T04:20:13.372Z,99.90
2022-09-02T04:22:40.815Z,99.90
2022-09-02T04:25:09.611Z,99.90
2022-09-02T04:27:37.026Z,99.90
2022-09-02T04:30:05.840Z,99.90
2022-09-02T04:32:35.835Z,99.90
2022-09-02T04:35:06.983Z,99.90
2022-09-02T04:37:33.849Z,99.90
2022-09-02T04:40:00.811Z,99.90
2022-09-02T04:42:27.763Z,99.90
2022-09-02T04:44:56.467Z,99.90
2022-09-02T04:47:23.722Z,99.90
2022-09-02T04:49:54.170Z,99.90
2022-09-02T04:52:21.311Z,99.90
2022-09-02T04:54:48.503Z,99.90
2022-09-02T04:57:15.846Z,99.90
2022-09-02T04:59:42.697Z,99.90
2022-09-02T05:02:09.979Z,99.90
2022-09-02T05:04:37.107Z,99.90
2022-09-02T05:07:04.268Z,99.90
2022-09-02T05:09:32.402Z,99.90
2022-09-02T05:12:04.103Z,99.90
2022-09-02T05:14:31.643Z,99.90
2022-09-02T05:17:03.865Z,99.90
2022-09-02T05:19:33.955Z,99.90
2022-09-02T05:22:01.765Z,99.90
2022-09-02T05:24:29.515Z,99.90
2022-09-02T05:26:56.386Z,99.90
2022-09-02T05:29:23.791Z,99.90
2022-09-02T05:31:50.742Z,99.90
2022-09-02T05:34:18.099Z,99.90
2022-09-02T05:36:45.746Z,99.90
2022-09-02T05:39:12.675Z,99.90
2022-09-02T05:41:39.709Z,99.90
2022-09-02T05:44:07.061Z,99.90
2022-09-02T05:46:34.867Z,99.90
2022-09-02T05:49:17.608Z,99.90
2022-09-02T05:51:49.213Z,99.90
2022-09-02T05:54:22.949Z,99.90
2022-09-02T05:56:57.399Z,99.90
2022-09-02T05:59:26.954Z,99.90
2022-09-02T06:01:54.564Z,99.90
2022-09-02T06:04:22.629Z,99.90
2022-09-02T06:06:50.671Z,99.90
2022-09-02T06:09:21.286Z,99.90
2022-09-02T06:11:49.651Z,99.90
2022-09-02T06:14:21.738Z,99.90
2022-09-02T06:16:53.709Z,99.90
2022-09-02T06:19:21.817Z,99.90
2022-09-02T06:21:49.706Z,99.90
2022-09-02T06:24:17.139Z,99.90
2022-09-02T06:26:44.300Z,99.90
2022-09-02T06:29:12.178Z,99.90
2022-09-02T06:31:46.349Z,99.90
2022-09-02T06:34:16.207Z,99.90
2022-09-02T06:36:46.853Z,99.90
2022-09-02T06:39:19.354Z,99.90
2022-09-02T06:41:48.456Z,99.90
2022-09-02T06:44:16.760Z,99.90
2022-09-02T06:46:48.128Z,99.90
2022-09-02T06:49:16.613Z,99.90
2022-09-02T06:51:48.486Z,99.90
2022-09-02T06:54:20.534Z,99.90
2022-09-02T06:56:49.767Z,99.90
2022-09-02T06:59:18.782Z,99.90
2022-09-02T07:01:46.613Z,99.90
2022-09-02T07:04:31.979Z,99.90
2022-09-02T07:06:58.875Z,99.90
2022-09-02T07:09:33.851Z,99.90
2022-09-02T07:12:05.145Z,99.90
2022-09-02T07:14:40.751Z,99.90
2022-09-02T07:17:09.662Z,99.90
2022-09-02T07:19:36.884Z,99.90
2022-09-02T07:22:07.571Z,99.90
2022-09-02T07:24:34.675Z,99.90
2022-09-02T07:27:01.589Z,99.90
2022-09-02T07:31:55.375Z,99.90
2022-09-02T07:34:22.325Z,99.90
2022-09-02T07:36:49.132Z,99.90
2022-09-02T07:39:18.978Z,99.90
2022-09-02T07:41:50.245Z,99.90
2022-09-02T07:44:19.238Z,99.90
2022-09-02T07:46:46.928Z,99.90
2022-09-02T07:49:15.580Z,99.90
2022-09-02T07:51:46.482Z,99.90
2022-09-02T07:54:13.573Z,99.90
2022-09-02T07:56:40.790Z,99.90
2022-09-02T07:59:07.606Z,99.90
2022-09-02T08:01:35.039Z,99.90
2022-09-02T08:04:05.645Z,99.90
2022-09-02T08:06:35.123Z,99.90
2022-09-02T08:09:06.748Z,99.90
2022-09-02T08:11:39.227Z,99.90
2022-09-02T08:14:09.462Z,99.90
2022-09-02T08:16:38.133Z,99.90
2022-09-02T08:19:07.289Z,99.90
2022-09-02T08:21:34.095Z,99.90
2022-09-02T08:24:00.898Z,99.90
2022-09-02T08:26:28.466Z,99.90
2022-09-02T08:28:56.021Z,99.90
2022-09-02T08:31:22.973Z,99.90
2022-09-02T08:33:49.883Z,99.90
2022-09-02T08:36:16.802Z,99.90
2022-09-02T08:38:44.621Z,99.90
2022-09-02T08:41:43.687Z,99.90
2022-09-02T08:44:12.470Z,99.90
2022-09-02T08:46:39.560Z,99.90
2022-09-02T08:49:26.875Z,99.90
2022-09-02T08:52:01.029Z,99.90
2022-09-02T08:54:48.995Z,99.90
2022-09-02T08:57:16.133Z,99.90
2022-09-02T08:59:44.212Z,99.90
2022-09-02T09:02:47.848Z,99.90
2022-09-02T09:06:29.266Z,99.90
2022-09-02T09:09:51.414Z,99.90
2022-09-02T09:12:51.011Z,99.90
2022-09-02T09:15:43.787Z,99.90
2022-09-02T09:18:19.795Z,99.90
2022-09-02T09:20:47.121Z,99.90
2022-09-02T09:23:34.719Z,99.90
2022-09-02T09:26:28.491Z,99.90
2022-09-02T09:28:59.199Z,99.90
2022-09-02T09:31:31.062Z,99.90
2022-09-02T09:34:12.205Z,99.90
2022-09-02T09:36:42.090Z,99.90
2022-09-02T09:39:30.989Z,99.90
2022-09-02T09:42:14.415Z,99.90
2022-09-02T09:44:49.078Z,99.90
2022-09-02T09:47:23.098Z,99.90
2022-09-02T09:50:12.910Z,99.90
2022-09-02T09:52:39.770Z,99.90
2022-09-02T09:55:27.322Z,99.90
2022-09-02T09:58:09.470Z,99.90
2022-09-02T10:00:37.418Z,99.90
2022-09-02T10:03:08.281Z,99.90
2022-09-02T10:05:38.984Z,99.90
2022-09-02T10:08:22.034Z,99.90
2022-09-02T10:11:02.562Z,99.90
2022-09-02T10:13:33.415Z,99.90
2022-09-02T10:16:28.634Z,99.90
2022-09-02T10:19:26.652Z,99.90
2022-09-02T10:22:09.935Z,99.90
2022-09-02T10:25:09.726Z,99.90
2022-09-02T10:27:58.615Z,99.90
2022-09-02T10:30:26.382Z,99.90
2022-09-02T10:33:04.974Z,99.90
2022-09-02T10:35:46.178Z,99.90
2022-09-02T10:38:37.315Z,99.90
2022-09-02T10:44:38.226Z,99.90
2022-09-02T10:47:29.332Z,99.90
2022-09-02T10:50:33.718Z,98.90
2022-09-02T10:53:18.510Z,98.50
2022-09-02T10:56:08.583Z,99.40
2022-09-02T10:58:52.865Z,98.90
2022-09-02T11:01:33.602Z,96.90
2022-09-02T11:04:29.632Z,98.70
2022-09-02T11:07:05.062Z,96.90
2022-09-02T11:09:46.163Z,98.20
2022-09-02T11:12:21.211Z,98.60
2022-09-02T11:15:27.526Z,98.20
2022-09-02T11:18:30.177Z,97.20
2022-09-02T11:21:03.596Z,98.20
2022-09-02T11:23:59.989Z,96.80
2022-09-02T11:26:38.918Z,95.70
2022-09-02T11:29:54.908Z,96.50
2022-09-02T11:32:38.578Z,94.60
2022-09-02T11:35:10.965Z,94.60
2022-09-02T11:37:56.042Z,95.20
2022-09-02T11:40:38.736Z,95.10
2022-09-02T11:43:49.559Z,94.70
2022-09-02T11:46:37.865Z,94.40
2022-09-02T11:50:06.776Z,93.90
2022-09-02T11:52:47.172Z,93.70
2022-09-02T11:55:31.520Z,94.30
2022-09-02T11:57:59.115Z,94.00
2022-09-02T12:00:33.618Z,95.50
2022-09-02T12:03:16.754Z,93.90
2022-09-02T12:05:51.929Z,94.80
2022-09-02T12:08:28.455Z,92.70
2022-09-02T12:11:01.093Z,93.20
2022-09-02T12:16:23.490Z,94.00
2022-09-02T12:18:56.767Z,94.00
2022-09-02T12:21:28.461Z,93.70
2022-09-02T12:23:58.226Z,94.40
2022-09-02T12:26:50.944Z,94.80
2022-09-02T12:29:24.627Z,93.60
2022-09-02T12:31:52.793Z,93.60
2022-09-02T12:34:25.350Z,92.90
2022-09-02T12:37:00.132Z,93.30
2022-09-02T12:39:27.358Z,93.00
2022-09-02T12:42:03.146Z,92.20
2022-09-02T12:44:46.421Z,91.30
2022-09-02T12:47:45.296Z,91.60
2022-09-02T12:50:53.558Z,91.70
2022-09-02T12:53:43.485Z,91.60
2022-09-02T12:56:13.192Z,91.80
2022-09-02T12:58:46.054Z,91.40
2022-09-02T13:01:25.488Z,90.50
2022-09-02T13:04:46.983Z,90.10
2022-09-02T13:07:46.565Z,87.60
2022-09-02T13:10:46.647Z,86.90
2022-09-02T13:13:41.659Z,88.80
2022-09-02T13:17:08.947Z,87.70
2022-09-02T13:20:27.654Z,80.10
2022-09-02T13:23:18.458Z,78.80
2022-09-02T13:26:45.905Z,76.90
2022-09-02T13:29:37.306Z,74.70
2022-09-02T13:32:10.126Z,77.20
2022-09-02T13:34:58.390Z,75.10
2022-09-02T13:37:29.280Z,75.60
2022-09-02T13:39:56.591Z,73.90
2022-09-02T13:42:27.589Z,71.00
2022-09-02T13:45:19.630Z,70.40
2022-09-02T13:47:53.467Z,67.60
2022-09-02T13:50:31.847Z,66.70
2022-09-02T13:55:57.262Z,66.70
2022-09-02T13:58:42.643Z,66.00
2022-09-02T14:01:44.405Z,65.00
2022-09-02T14:04:15.439Z,61.80
2022-09-02T14:06:45.663Z,62.00
2022-09-02T14:09:25.063Z,62.60
2022-09-02T14:11:53.740Z,63.40
2022-09-02T14:14:24.620Z,63.60
2022-09-02T14:16:52.539Z,62.40
2022-09-02T14:19:22.291Z,61.70
2022-09-02T14:21:57.601Z,59.80
2022-09-02T14:24:30.430Z,59.90
2022-09-02T14:26:59.301Z,57.90
2022-09-02T14:29:31.934Z,59.70
2022-09-02T14:32:23.544Z,59.50
2022-09-02T14:35:09.673Z,56.50
2022-09-02T14:37:57.625Z,56.60
2022-09-02T14:40:38.629Z,56.20
2022-09-02T14:43:15.478Z,54.00
2022-09-02T14:45:49.583Z,54.50
2022-09-02T14:48:25.490Z,52.80
2022-09-02T14:51:05.746Z,52.10
2022-09-02T14:53:33.800Z,52.10
2022-09-02T14:56:01.035Z,54.00
2022-09-02T14:58:29.109Z,52.80
2022-09-02T15:01:01.596Z,52.60
2022-09-02T15:03:31.431Z,51.90
2022-09-02T15:05:58.895Z,53.40
2022-09-02T15:08:25.988Z,54.10
2022-09-02T15:10:54.300Z,53.70
2022-09-02T15:13:36.576Z,54.20
2022-09-02T15:16:03.766Z,52.80
2022-09-02T15:18:30.714Z,53.50
2022-09-02T15:20:57.674Z,54.10
2022-09-02T15:23:25.264Z,53.90
2022-09-02T15:25:54.166Z,53.50
2022-09-02T15:28:21.167Z,53.80
2022-09-02T15:30:48.109Z,52.70
2022-09-02T15:33:17.438Z,52.50
2022-09-02T15:35:46.742Z,54.90
2022-09-02T15:38:13.538Z,56.90
2022-09-02T15:40:40.378Z,59.70
2022-09-02T15:43:07.183Z,62.10
2022-09-02T15:45:35.122Z,65.60
2022-09-02T15:48:02.202Z,66.10
2022-09-02T15:50:34.233Z,69.00
2022-09-02T15:53:01.279Z,70.50
2022-09-02T15:55:32.258Z,71.90
2022-09-02T15:57:59.498Z,73.90
2022-09-02T16:00:27.728Z,73.80
2022-09-02T16:02:56.914Z,73.30
2022-09-02T16:05:24.197Z,73.50
2022-09-02T16:07:54.706Z,73.20
2022-09-02T16:10:21.598Z,76.20
2022-09-02T16:12:48.710Z,75.00
2022-09-02T16:15:15.794Z,74.50
2022-09-02T16:17:42.584Z,75.10
2022-09-02T16:20:09.816Z,75.20
2022-09-02T16:22:37.329Z,76.70
2022-09-02T16:25:04.461Z,78.00
2022-09-02T16:27:49.631Z,78.90
2022-09-02T16:30:16.554Z,77.20
2022-09-02T16:32:44.279Z,79.20
2022-09-02T16:35:11.100Z,78.50
2022-09-02T16:37:37.895Z,79.80
2022-09-02T16:40:05.800Z,79.70
2022-09-02T16:42:37.510Z,80.10
2022-09-02T16:45:05.699Z,78.90
2022-09-02T16:47:32.494Z,78.80
2022-09-02T16:49:59.279Z,78.40
2022-09-02T16:52:26.074Z,79.50
2022-09-02T16:54:52.874Z,81.80
2022-09-02T16:57:19.746Z,81.60
2022-09-02T16:59:46.559Z,81.30
2022-09-02T17:02:13.402Z,83.20
2022-09-02T17:04:40.242Z,83.40
2022-09-02T17:07:07.931Z,83.50
2022-09-02T17:09:34.807Z,83.60
2022-09-02T17:12:01.649Z,85.40
2022-09-02T17:14:28.498Z,85.80
2022-09-02T17:16:55.462Z,85.80
2022-09-02T17:19:22.855Z,86.80
2022-09-02T17:21:54.726Z,86.60
2022-09-02T17:24:31.465Z,89.00
2022-09-02T17:27:00.221Z,87.40
2022-09-02T17:29:48.535Z,88.80
2022-09-02T17:32:15.577Z,89.50
2022-09-02T17:34:42.421Z,90.30
2022-09-02T17:37:09.315Z,90.00
2022-09-02T17:39:36.271Z,90.70
2022-09-02T17:42:06.742Z,91.00
2022-09-02T17:44:37.553Z,91.40
2022-09-02T17:47:20.096Z,91.90
2022-09-02T17:49:48.238Z,91.90
2022-09-02T17:52:24.049Z,92.70
2022-09-02T17:54:53.525Z,93.60
2022-09-02T17:57:59.643Z,92.90
2022-09-02T18:00:28.263Z,93.90
2022-09-02T18:03:44.985Z,93.90
2022-09-02T18:06:20.075Z,94.80
2022-09-02T18:08:58.398Z,94.60
2022-09-02T18:11:26.164Z,95.20
2022-09-02T18:14:07.822Z,95.50
2022-09-02T18:17:10.705Z,95.60
2022-09-02T18:20:03.125Z,95.80
2022-09-02T18:22:55.883Z,96.20
2022-09-02T18:25:30.305Z,97.00
2022-09-02T18:28:10.118Z,97.50
2022-09-02T18:31:07.243Z,97.30
2022-09-02T18:33:54.383Z,97.80
2022-09-02T18:36:35.295Z,97.80
2022-09-02T18:39:27.027Z,98.00
2022-09-02T18:42:07.526Z,98.10
2022-09-02T18:45:01.161Z,98.30
2022-09-02T18:47:35.826Z,98.50
2022-09-02T18:50:06.412Z,98.00
2022-09-02T18:52:34.549Z,98.40
2022-09-02T18:55:07.361Z,98.40
2022-09-02T18:57:45.572Z,99.00
2022-09-02T19:00:15.302Z,99.90
2022-09-02T19:03:02.323Z,99.90
2022-09-02T19:05:32.563Z,99.90
2022-09-02T19:08:25.104Z,99.90
2022-09-02T19:11:05.677Z,99.90
2022-09-02T19:13:49.789Z,99.90
2022-09-02T19:16:30.438Z,99.90
2022-09-02T19:18:57.534Z,99.90
2022-09-02T19:21:46.108Z,99.90
2022-09-02T19:24:24.390Z,99.90
2022-09-02T19:27:04.299Z,99.90
2022-09-02T19:29:34.114Z,99.90
2022-09-02T19:32:01.276Z,99.90
2022-09-02T19:34:38.059Z,99.90
2022-09-02T19:37:05.323Z,99.90
2022-09-02T19:39:35.147Z,99.90
2022-09-02T19:42:01.994Z,99.90
2022-09-02T19:44:29.145Z,99.90
2022-09-02T19:48:02.767Z,99.90
2022-09-02T19:49:44.042Z,99.90
2022-09-02T19:52:11.994Z,99.90
2022-09-02T19:54:40.988Z,99.90
2022-09-02T19:57:07.811Z,99.90
2022-09-02T19:59:34.651Z,99.90
2022-09-02T20:02:03.454Z,99.90
2022-09-02T20:04:31.164Z,99.90
2022-09-02T20:07:01.955Z,99.90
2022-09-02T20:09:29.376Z,99.90
2022-09-02T20:11:56.810Z,99.90
2022-09-02T20:14:24.722Z,99.90
2022-09-02T20:16:59.958Z,99.90
2022-09-02T20:19:27.218Z,99.90
2022-09-02T20:21:54.111Z,99.90
2022-09-02T20:24:27.202Z,99.90
2022-09-02T20:27:22.404Z,99.90
2022-09-02T20:30:05.842Z,99.90
2022-09-02T20:33:15.959Z,99.90
2022-09-02T20:36:21.166Z,99.90
2022-09-02T20:39:55.355Z,99.90
2022-09-02T20:42:34.327Z,99.90
2022-09-02T20:45:16.445Z,99.90
2022-09-02T20:48:14.529Z,99.90
2022-09-02T20:51:15.871Z,99.90
2022-09-02T20:54:13.243Z,99.90
2022-09-02T20:57:23.125Z,99.90
2022-09-02T21:00:16.671Z,99.90
2022-09-02T21:03:10.921Z,99.90
2022-09-02T21:05:42.730Z,99.90
2022-09-02T21:08:26.398Z,99.90
2022-09-02T21:10:57.266Z,99.90
2022-09-02T21:14:00.766Z,99.90
2022-09-02T21:16:36.881Z,99.90
2022-09-02T21:19:30.815Z,99.90
2022-09-02T21:22:10.316Z,99.90
2022-09-02T21:25:00.027Z,99.90
2022-09-02T21:27:45.047Z,99.90
2022-09-02T21:30:25.190Z,99.90
2022-09-02T21:33:01.810Z,99.90
2022-09-02T21:35:38.970Z,99.90
2022-09-02T21:38:37.439Z,99.90
2022-09-02T21:41:42.694Z,99.90
2022-09-02T21:44:21.992Z,99.90
2022-09-02T21:47:36.092Z,99.90
2022-09-02T21:50:26.006Z,99.90
2022-09-02T21:53:21.978Z,99.90
2022-09-02T21:56:22.003Z,99.90
2022-09-02T21:59:56.474Z,99.90
2022-09-02T22:02:35.093Z,99.90
2022-09-02T22:05:56.174Z,99.90
2022-09-02T22:08:53.763Z,99.90
2022-09-02T22:11:44.775Z,99.90
2022-09-02T22:14:26.300Z,99.90
2022-09-02T22:16:58.983Z,99.90
2022-09-02T22:19:31.446Z,99.90
2022-09-02T22:22:11.367Z,99.90
2022-09-02T22:24:40.449Z,99.90
2022-09-02T22:27:14.390Z,99.90
2022-09-02T22:29:49.863Z,99.90
2022-09-02T22:32:23.814Z,99.90
2022-09-02T22:35:11.391Z,99.90
2022-09-02T22:37:58.267Z,99.90
2022-09-02T22:40:32.391Z,99.90
2022-09-02T22:43:07.359Z,99.90
2022-09-02T22:46:03.621Z,99.90
2022-09-02T22:49:10.222Z,99.90
2022-09-02T22:52:14.389Z,99.90
2022-09-02T22:54:41.277Z,99.90
2022-09-02T22:57:33.782Z,99.90
2022-09-02T23:00:15.626Z,99.90
2022-09-02T23:03:14.574Z,99.90
2022-09-02T23:06:03.224Z,99.90
2022-09-02T23:08:31.591Z,99.90
2022-09-02T23:11:06.706Z,99.90
2022-09-02T23:14:44.469Z,99.90
2022-09-02T23:17:34.687Z,99.90
2022-09-02T23:20:23.333Z,99.90
2022-09-02T23:23:38.838Z,99.90
2022-09-02T23:26:33.123Z,99.90
2022-09-02T23:29:16.419Z,99.90
2022-09-02T23:32:23.378Z,99.90
2022-09-02T23:35:27.806Z,99.90
2022-09-02T23:38:22.155Z,99.90
2022-09-02T23:41:06.858Z,99.90
2022-09-02T23:43:34.691Z,99.90
2022-09-02T23:46:31.658Z,99.90
2022-09-02T23:49:10.393Z,99.90
2022-09-02T23:52:03.472Z,99.90
2022-09-02T23:54:50.464Z,99.90
2022-09-02T23:57:27.221Z,99.90
